createdAt,value
2023-04-30T00:00:13.042Z,93
2023-04-30T00:00:34.765Z,93
2023-04-30T00:01:01.598Z,93
2023-04-30T00:01:32.572Z,93
2023-04-30T00:02:04.277Z,93
2023-04-30T00:02:34.849Z,93
2023-04-30T00:02:52.178Z,93
2023-04-30T00:03:25.046Z,93
2023-04-30T00:03:42.745Z,93
2023-04-30T00:04:12.237Z,93
2023-04-30T00:04:34.751Z,93
2023-04-30T00:05:01.388Z,93
2023-04-30T00:05:33.166Z,93
2023-04-30T00:06:04.346Z,93
2023-04-30T00:06:34.884Z,93
2023-04-30T00:06:52.161Z,93
2023-04-30T00:07:24.965Z,93
2023-04-30T00:07:42.068Z,93
2023-04-30T00:08:12.137Z,93
2023-04-30T00:08:34.591Z,93
2023-04-30T00:09:01.347Z,93
2023-04-30T00:09:32.523Z,93
2023-04-30T00:10:04.460Z,93
2023-04-30T00:10:34.632Z,93
2023-04-30T00:10:52.322Z,93
2023-04-30T00:11:24.953Z,93
2023-04-30T00:11:42.043Z,93
2023-04-30T00:12:12.171Z,93
2023-04-30T00:12:34.697Z,93
2023-04-30T00:13:01.503Z,93
2023-04-30T00:13:32.143Z,93
2023-04-30T00:14:04.201Z,93
2023-04-30T00:14:34.682Z,93
2023-04-30T00:14:52.139Z,93
2023-04-30T00:15:25.238Z,93
2023-04-30T00:15:42.089Z,93
2023-04-30T00:16:12.186Z,93
2023-04-30T00:16:35.297Z,93
2023-04-30T00:17:01.488Z,93
2023-04-30T00:17:32.776Z,93
2023-04-30T00:18:04.220Z,93
2023-04-30T00:18:35.052Z,93
2023-04-30T00:18:52.106Z,93
2023-04-30T00:19:24.877Z,93
2023-04-30T00:19:42.186Z,93
2023-04-30T00:20:12.446Z,93
2023-04-30T00:20:34.687Z,93
2023-04-30T00:21:01.367Z,93
2023-04-30T00:21:32.518Z,93
2023-04-30T00:22:05.620Z,93
2023-04-30T00:22:34.645Z,93
2023-04-30T00:22:52.224Z,93
2023-04-30T00:23:24.369Z,93
2023-04-30T00:23:41.530Z,93
2023-04-30T00:24:12.984Z,93
2023-04-30T00:24:34.620Z,93
2023-04-30T00:25:00.610Z,93
2023-04-30T00:25:33.368Z,93
2023-04-30T00:26:04.223Z,93
2023-04-30T00:26:34.610Z,93
2023-04-30T00:26:53.056Z,93
2023-04-30T00:27:24.209Z,93
2023-04-30T00:27:41.363Z,93
2023-04-30T00:28:12.938Z,93
2023-04-30T00:28:34.691Z,93
2023-04-30T00:29:00.651Z,93
2023-04-30T00:29:32.947Z,94
2023-04-30T00:30:04.890Z,94
2023-04-30T00:30:34.701Z,94
2023-04-30T00:30:53.318Z,94
2023-04-30T00:31:24.560Z,93
2023-04-30T00:31:41.650Z,93
2023-04-30T00:32:13.362Z,93
2023-04-30T00:32:34.712Z,93
2023-04-30T00:33:00.524Z,93
2023-04-30T00:33:33.582Z,94
2023-04-30T00:34:04.596Z,94
2023-04-30T00:34:35.570Z,94
2023-04-30T00:34:52.042Z,94
2023-04-30T00:35:24.480Z,93
2023-04-30T00:35:42.282Z,93
2023-04-30T00:36:12.537Z,94
2023-04-30T00:36:34.701Z,94
2023-04-30T00:37:01.392Z,94
2023-04-30T00:37:32.655Z,94
2023-04-30T00:38:04.974Z,93
2023-04-30T00:38:34.650Z,93
2023-04-30T00:38:52.232Z,93
2023-04-30T00:39:24.288Z,93
2023-04-30T00:39:41.400Z,94
2023-04-30T00:40:13.217Z,94
2023-04-30T00:40:34.639Z,93
2023-04-30T00:41:00.539Z,93
2023-04-30T00:41:32.616Z,93
2023-04-30T00:42:04.403Z,93
2023-04-30T00:42:35.365Z,93
2023-04-30T00:42:52.240Z,93
2023-04-30T00:43:24.879Z,93
2023-04-30T00:43:41.994Z,93
2023-04-30T00:44:12.304Z,93
2023-04-30T00:44:35.297Z,93
2023-04-30T00:45:02.036Z,93
2023-04-30T00:45:32.564Z,93
2023-04-30T00:46:04.241Z,93
2023-04-30T00:46:34.640Z,93
2023-04-30T00:46:52.131Z,93
2023-04-30T00:47:25.024Z,93
2023-04-30T00:47:42.144Z,93
2023-04-30T00:48:12.363Z,93
2023-04-30T00:48:34.726Z,93
2023-04-30T00:49:00.422Z,94
2023-04-30T00:49:33.081Z,94
2023-04-30T00:50:05.320Z,94
2023-04-30T00:50:34.641Z,94
2023-04-30T00:50:53.308Z,94
2023-04-30T00:51:24.237Z,94
2023-04-30T00:51:41.381Z,94
2023-04-30T00:52:13.006Z,94
2023-04-30T00:52:34.671Z,94
2023-04-30T00:53:00.372Z,94
2023-04-30T00:53:32.957Z,94
2023-04-30T00:54:04.272Z,94
2023-04-30T00:54:34.721Z,94
2023-04-30T00:54:53.064Z,94
2023-04-30T00:55:24.423Z,94
2023-04-30T00:55:41.427Z,94
2023-04-30T00:56:12.974Z,94
2023-04-30T00:56:34.606Z,94
2023-04-30T00:57:00.452Z,94
2023-04-30T00:57:32.946Z,94
2023-04-30T00:58:04.250Z,94
2023-04-30T00:58:36.933Z,94
2023-04-30T00:59:08.256Z,94
2023-04-30T00:59:34.673Z,94
2023-04-30T00:59:56.995Z,94
2023-04-30T01:00:28.372Z,94
2023-04-30T01:01:01.367Z,94
2023-04-30T01:01:32.655Z,94
2023-04-30T01:02:04.991Z,94
2023-04-30T01:02:34.845Z,94
2023-04-30T01:03:41.135Z,94
2023-04-30T01:04:47.371Z,94
2023-04-30T01:05:53.872Z,94
2023-04-30T01:07:00.146Z,94
2023-04-30T01:08:06.339Z,94
2023-04-30T01:09:12.529Z,94
2023-04-30T01:10:18.839Z,94
2023-04-30T01:11:25.012Z,94
2023-04-30T01:12:31.189Z,94
2023-04-30T01:13:37.398Z,94
2023-04-30T01:14:43.567Z,94
2023-04-30T01:15:49.988Z,94
2023-04-30T01:16:56.217Z,94
2023-04-30T01:18:02.487Z,94
2023-04-30T01:19:08.754Z,94
2023-04-30T01:20:15.161Z,94
2023-04-30T01:21:21.334Z,94
2023-04-30T01:22:27.525Z,94
2023-04-30T01:23:33.715Z,94
2023-04-30T01:23:37.046Z,94
2023-04-30T01:23:57.124Z,94
2023-04-30T01:24:28.129Z,94
2023-04-30T01:25:00.497Z,94
2023-04-30T01:25:32.636Z,94
2023-04-30T01:26:04.260Z,94
2023-04-30T01:26:34.683Z,94
2023-04-30T01:26:52.746Z,94
2023-04-30T01:27:24.412Z,94
2023-04-30T01:27:41.422Z,94
2023-04-30T01:28:12.648Z,94
2023-04-30T01:28:34.696Z,94
2023-04-30T01:29:00.216Z,94
2023-04-30T01:29:32.561Z,94
2023-04-30T01:30:04.569Z,94
2023-04-30T01:30:34.754Z,94
2023-04-30T01:30:52.361Z,94
2023-04-30T01:31:25.252Z,94
2023-04-30T01:31:43.155Z,94
2023-04-30T01:32:12.210Z,94
2023-04-30T01:32:34.635Z,94
2023-04-30T01:33:00.286Z,94
2023-04-30T01:33:33.263Z,94
2023-04-30T01:34:04.908Z,94
2023-04-30T01:34:35.377Z,94
2023-04-30T01:35:07.774Z,94
2023-04-30T01:35:24.165Z,94
2023-04-30T01:35:42.217Z,94
2023-04-30T01:36:12.163Z,94
2023-04-30T01:36:34.680Z,94
2023-04-30T01:37:00.195Z,94
2023-04-30T01:37:33.375Z,94
2023-04-30T01:38:05.059Z,94
2023-04-30T01:38:34.666Z,94
2023-04-30T01:38:52.156Z,94
2023-04-30T01:39:24.187Z,94
2023-04-30T01:39:41.364Z,94
2023-04-30T01:40:13.370Z,94
2023-04-30T01:40:34.801Z,94
2023-04-30T01:41:00.316Z,94
2023-04-30T01:41:33.518Z,94
2023-04-30T01:42:04.167Z,94
2023-04-30T01:42:34.594Z,94
2023-04-30T01:42:53.295Z,94
2023-04-30T01:43:24.178Z,94
2023-04-30T01:43:41.350Z,94
2023-04-30T01:44:12.398Z,94
2023-04-30T01:44:34.625Z,94
2023-04-30T01:45:02.252Z,94
2023-04-30T01:45:32.260Z,94
2023-04-30T01:46:04.400Z,94
2023-04-30T01:46:35.041Z,94
2023-04-30T01:46:52.156Z,94
2023-04-30T01:47:26.102Z,94
2023-04-30T01:47:44.054Z,94
2023-04-30T01:48:12.184Z,94
2023-04-30T01:48:34.823Z,94
2023-04-30T01:49:00.148Z,94
2023-04-30T01:49:33.469Z,94
2023-04-30T01:50:04.453Z,94
2023-04-30T01:50:40.293Z,94
2023-04-30T01:51:08.182Z,94
2023-04-30T01:51:34.618Z,94
2023-04-30T01:51:57.062Z,94
2023-04-30T01:52:28.151Z,94
2023-04-30T01:53:00.190Z,94
2023-04-30T01:53:32.552Z,94
2023-04-30T01:54:04.268Z,94
2023-04-30T01:54:34.878Z,94
2023-04-30T01:55:08.354Z,94
2023-04-30T01:55:34.796Z,94
2023-04-30T01:55:56.370Z,94
2023-04-30T01:56:29.095Z,94
2023-04-30T01:57:00.304Z,94
2023-04-30T01:57:32.922Z,94
2023-04-30T01:58:04.256Z,94
2023-04-30T01:58:34.605Z,94
2023-04-30T01:58:53.080Z,94
2023-04-30T01:59:27.448Z,94
2023-04-30T01:59:56.547Z,94
2023-04-30T02:00:28.368Z,94
2023-04-30T02:01:00.321Z,94
2023-04-30T02:01:32.308Z,94
2023-04-30T02:02:04.328Z,94
2023-04-30T02:02:35.423Z,94
2023-04-30T02:02:52.428Z,94
2023-04-30T02:03:25.588Z,94
2023-04-30T02:03:42.707Z,94
2023-04-30T02:04:12.213Z,94
2023-04-30T02:04:34.636Z,94
2023-04-30T02:05:00.501Z,94
2023-04-30T02:05:34.309Z,94
2023-04-30T02:06:04.259Z,94
2023-04-30T02:06:37.116Z,94
2023-04-30T02:07:08.184Z,94
2023-04-30T02:07:35.136Z,94
2023-04-30T02:07:56.139Z,94
2023-04-30T02:08:28.180Z,94
2023-04-30T02:09:02.298Z,94
2023-04-30T02:09:32.512Z,94
2023-04-30T02:10:06.156Z,94
2023-04-30T02:10:34.693Z,94
2023-04-30T02:10:52.826Z,94
2023-04-30T02:11:35.584Z,94
2023-04-30T02:11:56.162Z,94
2023-04-30T02:12:28.185Z,94
2023-04-30T02:13:00.334Z,94
2023-04-30T02:13:33.510Z,94
2023-04-30T02:14:04.264Z,94
2023-04-30T02:14:34.607Z,94
2023-04-30T02:14:52.316Z,94
2023-04-30T02:15:25.347Z,94
2023-04-30T02:15:42.442Z,94
2023-04-30T02:16:12.222Z,94
2023-04-30T02:16:35.096Z,94
2023-04-30T02:17:00.232Z,94
2023-04-30T02:17:33.227Z,94
2023-04-30T02:18:04.365Z,94
2023-04-30T02:18:34.668Z,94
2023-04-30T02:18:53.296Z,94
2023-04-30T02:19:24.343Z,94
2023-04-30T02:19:41.430Z,94
2023-04-30T02:20:13.304Z,94
2023-04-30T02:20:34.799Z,94
2023-04-30T02:21:00.311Z,94
2023-04-30T02:21:32.645Z,94
2023-04-30T02:22:04.514Z,94
2023-04-30T02:22:36.702Z,94
2023-04-30T02:23:09.230Z,94
2023-04-30T02:23:35.129Z,94
2023-04-30T02:23:56.270Z,94
2023-04-30T02:24:29.014Z,94
2023-04-30T02:25:00.616Z,94
2023-04-30T02:25:35.052Z,94
2023-04-30T02:26:04.226Z,94
2023-04-30T02:26:36.248Z,94
2023-04-30T02:27:08.161Z,94
2023-04-30T02:27:34.609Z,94
2023-04-30T02:27:56.177Z,94
2023-04-30T02:28:28.134Z,94
2023-04-30T02:29:01.755Z,94
2023-04-30T02:29:32.684Z,94
2023-04-30T02:30:05.415Z,94
2023-04-30T02:30:35.373Z,94
2023-04-30T02:30:52.427Z,94
2023-04-30T02:31:24.280Z,94
2023-04-30T02:31:41.419Z,94
2023-04-30T02:32:13.566Z,94
2023-04-30T02:32:35.065Z,94
2023-04-30T02:33:00.419Z,94
2023-04-30T02:33:32.601Z,94
2023-04-30T02:34:04.644Z,94
2023-04-30T02:34:34.648Z,94
2023-04-30T02:34:52.176Z,94
2023-04-30T02:35:25.397Z,94
2023-04-30T02:35:43.300Z,94
2023-04-30T02:36:12.251Z,94
2023-04-30T02:36:34.639Z,94
2023-04-30T02:37:00.195Z,94
2023-04-30T02:37:33.254Z,94
2023-04-30T02:38:04.190Z,94
2023-04-30T02:38:35.491Z,94
2023-04-30T02:38:52.196Z,94
2023-04-30T02:39:24.253Z,94
2023-04-30T02:39:41.754Z,94
2023-04-30T02:40:14.331Z,94
2023-04-30T02:40:34.667Z,94
2023-04-30T02:41:00.193Z,94
2023-04-30T02:41:32.731Z,94
2023-04-30T02:42:04.277Z,94
2023-04-30T02:42:34.669Z,94
2023-04-30T02:42:52.187Z,94
2023-04-30T02:43:25.205Z,94
2023-04-30T02:43:42.234Z,94
2023-04-30T02:44:12.305Z,94
2023-04-30T02:44:34.636Z,94
2023-04-30T02:45:01.607Z,94
2023-04-30T02:45:32.299Z,94
2023-04-30T02:46:05.334Z,94
2023-04-30T02:46:34.693Z,94
2023-04-30T02:46:52.247Z,94
2023-04-30T02:47:25.148Z,94
2023-04-30T02:47:42.268Z,94
2023-04-30T02:48:12.293Z,94
2023-04-30T02:48:34.652Z,94
2023-04-30T02:49:00.174Z,94
2023-04-30T02:49:33.194Z,94
2023-04-30T02:50:04.606Z,94
2023-04-30T02:50:36.958Z,94
2023-04-30T02:51:08.213Z,94
2023-04-30T02:51:34.686Z,94
2023-04-30T02:51:56.301Z,94
2023-04-30T02:52:28.210Z,94
2023-04-30T02:53:01.519Z,94
2023-04-30T02:53:32.546Z,94
2023-04-30T02:54:04.335Z,94
2023-04-30T02:54:34.603Z,94
2023-04-30T02:54:52.215Z,94
2023-04-30T02:55:25.670Z,94
2023-04-30T02:55:43.676Z,94
2023-04-30T02:56:12.207Z,94
2023-04-30T02:56:34.652Z,94
2023-04-30T02:57:00.186Z,94
2023-04-30T02:57:33.324Z,94
2023-04-30T02:58:04.214Z,94
2023-04-30T02:58:36.968Z,94
2023-04-30T02:59:08.213Z,94
2023-04-30T02:59:35.173Z,94
2023-04-30T02:59:56.580Z,94
2023-04-30T03:00:28.394Z,94
2023-04-30T03:01:01.665Z,94
2023-04-30T03:01:32.397Z,94
2023-04-30T03:02:05.233Z,94
2023-04-30T03:02:34.732Z,94
2023-04-30T03:02:52.364Z,94
2023-04-30T03:03:25.406Z,94
2023-04-30T03:03:42.432Z,94
2023-04-30T03:04:12.179Z,94
2023-04-30T03:04:34.713Z,95
2023-04-30T03:05:01.751Z,95
2023-04-30T03:05:32.301Z,95
2023-04-30T03:06:05.176Z,95
2023-04-30T03:06:34.714Z,95
2023-04-30T03:06:52.218Z,94
2023-04-30T03:07:24.237Z,94
2023-04-30T03:07:41.415Z,94
2023-04-30T03:08:13.227Z,94
2023-04-30T03:08:34.607Z,95
2023-04-30T03:09:00.220Z,94
2023-04-30T03:09:32.966Z,95
2023-04-30T03:10:04.451Z,94
2023-04-30T03:10:34.694Z,94
2023-04-30T03:10:52.365Z,94
2023-04-30T03:11:25.208Z,94
2023-04-30T03:11:42.367Z,94
2023-04-30T03:12:12.173Z,94
2023-04-30T03:12:34.595Z,94
2023-04-30T03:13:01.476Z,94
2023-04-30T03:13:32.877Z,94
2023-04-30T03:14:04.326Z,94
2023-04-30T03:14:34.759Z,94
2023-04-30T03:14:52.191Z,94
2023-04-30T03:15:25.464Z,95
2023-04-30T03:15:42.378Z,95
2023-04-30T03:16:12.243Z,95
2023-04-30T03:16:34.721Z,95
2023-04-30T03:17:01.537Z,95
2023-04-30T03:17:33.158Z,95
2023-04-30T03:18:04.330Z,95
2023-04-30T03:18:34.755Z,95
2023-04-30T03:18:52.292Z,95
2023-04-30T03:19:25.472Z,95
2023-04-30T03:19:43.905Z,95
2023-04-30T03:20:12.351Z,95
2023-04-30T03:20:34.715Z,95
2023-04-30T03:21:00.240Z,95
2023-04-30T03:21:32.655Z,95
2023-04-30T03:22:05.239Z,95
2023-04-30T03:22:34.699Z,95
2023-04-30T03:22:52.239Z,95
2023-04-30T03:23:24.247Z,95
2023-04-30T03:23:41.657Z,95
2023-04-30T03:24:13.956Z,95
2023-04-30T03:24:34.632Z,95
2023-04-30T03:25:00.303Z,95
2023-04-30T03:25:32.878Z,95
2023-04-30T03:26:04.176Z,95
2023-04-30T03:26:34.628Z,95
2023-04-30T03:26:52.195Z,95
2023-04-30T03:27:25.331Z,95
2023-04-30T03:27:42.300Z,95
2023-04-30T03:28:12.252Z,95
2023-04-30T03:28:34.759Z,95
2023-04-30T03:29:00.180Z,95
2023-04-30T03:29:33.319Z,95
2023-04-30T03:30:04.474Z,95
2023-04-30T03:30:36.838Z,95
2023-04-30T03:31:08.294Z,95
2023-04-30T03:31:35.286Z,95
2023-04-30T03:31:56.609Z,95
2023-04-30T03:32:28.235Z,95
2023-04-30T03:33:01.727Z,95
2023-04-30T03:33:32.477Z,95
2023-04-30T03:34:04.969Z,95
2023-04-30T03:34:34.634Z,95
2023-04-30T03:34:52.270Z,95
2023-04-30T03:35:25.306Z,95
2023-04-30T03:35:42.137Z,95
2023-04-30T03:36:13.325Z,95
2023-04-30T03:36:34.631Z,95
2023-04-30T03:37:00.246Z,95
2023-04-30T03:37:33.939Z,95
2023-04-30T03:38:04.385Z,95
2023-04-30T03:38:35.641Z,95
2023-04-30T03:38:52.119Z,95
2023-04-30T03:39:24.344Z,95
2023-04-30T03:39:41.754Z,95
2023-04-30T03:40:13.399Z,95
2023-04-30T03:40:35.571Z,95
2023-04-30T03:41:00.498Z,95
2023-04-30T03:41:33.156Z,95
2023-04-30T03:42:04.286Z,95
2023-04-30T03:42:39.811Z,95
2023-04-30T03:43:08.191Z,95
2023-04-30T03:43:35.344Z,95
2023-04-30T03:43:56.200Z,95
2023-04-30T03:44:29.793Z,95
2023-04-30T03:45:00.644Z,95
2023-04-30T03:45:32.756Z,95
2023-04-30T03:46:04.281Z,95
2023-04-30T03:46:35.727Z,95
2023-04-30T03:46:52.092Z,95
2023-04-30T03:47:24.297Z,95
2023-04-30T03:47:41.470Z,95
2023-04-30T03:48:14.106Z,95
2023-04-30T03:48:34.734Z,95
2023-04-30T03:49:00.235Z,95
2023-04-30T03:49:33.307Z,95
2023-04-30T03:50:04.839Z,95
2023-04-30T03:50:34.837Z,95
2023-04-30T03:50:53.441Z,95
2023-04-30T03:51:24.375Z,95
2023-04-30T03:51:41.442Z,95
2023-04-30T03:52:12.222Z,95
2023-04-30T03:52:34.765Z,95
2023-04-30T03:53:01.470Z,95
2023-04-30T03:53:32.285Z,95
2023-04-30T03:54:05.351Z,95
2023-04-30T03:54:36.077Z,95
2023-04-30T03:55:09.267Z,95
2023-04-30T03:55:34.744Z,95
2023-04-30T03:55:56.360Z,95
2023-04-30T03:56:29.150Z,95
2023-04-30T03:57:00.259Z,95
2023-04-30T03:57:32.996Z,95
2023-04-30T03:58:04.225Z,95
2023-04-30T03:58:34.696Z,95
2023-04-30T03:58:53.168Z,95
2023-04-30T03:59:24.443Z,95
2023-04-30T03:59:41.428Z,95
2023-04-30T04:00:12.662Z,95
2023-04-30T04:00:35.384Z,95
2023-04-30T04:01:01.653Z,95
2023-04-30T04:01:32.728Z,95
2023-04-30T04:02:04.336Z,95
2023-04-30T04:02:35.939Z,95
2023-04-30T04:03:08.338Z,95
2023-04-30T04:03:34.734Z,95
2023-04-30T04:03:56.342Z,95
2023-04-30T04:04:29.157Z,95
2023-04-30T04:05:00.397Z,95
2023-04-30T04:05:33.858Z,95
2023-04-30T04:06:04.354Z,95
2023-04-30T04:06:34.828Z,95
2023-04-30T04:06:53.485Z,95
2023-04-30T04:07:24.236Z,95
2023-04-30T04:07:41.541Z,95
2023-04-30T04:08:12.255Z,95
2023-04-30T04:08:34.913Z,95
2023-04-30T04:09:00.421Z,95
2023-04-30T04:09:32.848Z,95
2023-04-30T04:10:04.570Z,95
2023-04-30T04:10:35.382Z,95
2023-04-30T04:10:52.631Z,95
2023-04-30T04:11:24.442Z,95
2023-04-30T04:11:42.483Z,95
2023-04-30T04:12:12.480Z,95
2023-04-30T04:12:34.880Z,95
2023-04-30T04:13:01.287Z,95
2023-04-30T04:13:32.785Z,95
2023-04-30T04:14:05.568Z,95
2023-04-30T04:14:34.887Z,95
2023-04-30T04:14:52.425Z,95
2023-04-30T04:15:26.148Z,95
2023-04-30T04:15:42.458Z,95
2023-04-30T04:16:12.425Z,95
2023-04-30T04:16:34.950Z,95
2023-04-30T04:17:01.238Z,95
2023-04-30T04:17:32.840Z,95
2023-04-30T04:18:04.527Z,95
2023-04-30T04:18:36.397Z,95
2023-04-30T04:19:08.338Z,95
2023-04-30T04:19:35.845Z,95
2023-04-30T04:19:56.533Z,95
2023-04-30T04:20:30.380Z,95
2023-04-30T04:21:00.454Z,95
2023-04-30T04:21:34.094Z,95
2023-04-30T04:22:07.171Z,95
2023-04-30T04:22:36.462Z,95
2023-04-30T04:23:08.393Z,95
2023-04-30T04:23:34.809Z,95
2023-04-30T04:23:56.426Z,95
2023-04-30T04:24:28.363Z,95
2023-04-30T04:25:01.668Z,95
2023-04-30T04:25:32.817Z,95
2023-04-30T04:26:05.526Z,95
2023-04-30T04:26:35.405Z,95
2023-04-30T04:26:52.467Z,95
2023-04-30T04:27:24.553Z,95
2023-04-30T04:27:41.579Z,95
2023-04-30T04:28:13.369Z,95
2023-04-30T04:28:35.453Z,95
2023-04-30T04:29:00.390Z,95
2023-04-30T04:29:33.366Z,95
2023-04-30T04:30:04.912Z,95
2023-04-30T04:30:34.850Z,95
2023-04-30T04:30:53.679Z,95
2023-04-30T04:31:24.517Z,95
2023-04-30T04:31:41.680Z,95
2023-04-30T04:32:13.305Z,95
2023-04-30T04:32:34.862Z,95
2023-04-30T04:33:00.712Z,95
2023-04-30T04:33:32.837Z,95
2023-04-30T04:34:04.788Z,95
2023-04-30T04:34:34.805Z,95
2023-04-30T04:34:52.442Z,95
2023-04-30T04:35:25.575Z,95
2023-04-30T04:35:42.713Z,95
2023-04-30T04:36:12.490Z,95
2023-04-30T04:36:35.348Z,95
2023-04-30T04:37:00.368Z,95
2023-04-30T04:37:33.585Z,95
2023-04-30T04:38:04.636Z,95
2023-04-30T04:38:35.887Z,95
2023-04-30T04:38:52.497Z,95
2023-04-30T04:39:24.464Z,95
2023-04-30T04:39:41.595Z,95
2023-04-30T04:40:13.432Z,95
2023-04-30T04:40:35.240Z,95
2023-04-30T04:41:00.511Z,95
2023-04-30T04:41:33.723Z,95
2023-04-30T04:42:04.533Z,95
2023-04-30T04:42:35.869Z,95
2023-04-30T04:42:52.424Z,95
2023-04-30T04:43:24.447Z,95
2023-04-30T04:43:41.664Z,95
2023-04-30T04:44:13.868Z,95
2023-04-30T04:44:34.942Z,95
2023-04-30T04:45:00.664Z,95
2023-04-30T04:45:33.265Z,95
2023-04-30T04:46:13.000Z,95
2023-04-30T04:46:39.562Z,95
2023-04-30T04:47:24.501Z,95
2023-04-30T04:47:41.653Z,95
2023-04-30T04:48:13.506Z,95
2023-04-30T04:48:35.312Z,95
2023-04-30T04:49:00.371Z,95
2023-04-30T04:49:32.465Z,95
2023-04-30T04:50:04.940Z,95
2023-04-30T04:50:34.835Z,95
2023-04-30T04:50:52.608Z,95
2023-04-30T04:51:25.264Z,95
2023-04-30T04:51:42.416Z,95
2023-04-30T04:52:12.462Z,95
2023-04-30T04:52:34.860Z,95
2023-04-30T04:53:00.514Z,95
2023-04-30T04:53:34.968Z,95
2023-04-30T04:54:04.491Z,95
2023-04-30T04:54:35.859Z,95
2023-04-30T04:54:52.341Z,95
2023-04-30T04:55:24.580Z,95
2023-04-30T04:55:41.633Z,95
2023-04-30T04:56:13.451Z,95
2023-04-30T04:56:35.368Z,95
2023-04-30T04:57:00.532Z,95
2023-04-30T04:57:33.756Z,95
2023-04-30T04:58:04.499Z,95
2023-04-30T04:58:35.990Z,95
2023-04-30T04:58:52.469Z,95
2023-04-30T04:59:24.457Z,95
2023-04-30T04:59:42.469Z,95
2023-04-30T05:00:12.995Z,95
2023-04-30T05:00:35.069Z,95
2023-04-30T05:01:01.392Z,95
2023-04-30T05:01:32.932Z,95
2023-04-30T05:02:04.479Z,95
2023-04-30T05:02:34.943Z,95
2023-04-30T05:02:52.575Z,95
2023-04-30T05:03:25.432Z,95
2023-04-30T05:03:42.785Z,95
2023-04-30T05:04:12.468Z,95
2023-04-30T05:04:34.865Z,95
2023-04-30T05:05:01.717Z,95
2023-04-30T05:05:33.038Z,95
2023-04-30T05:06:04.436Z,95
2023-04-30T05:06:34.844Z,95
2023-04-30T05:06:52.380Z,95
2023-04-30T05:07:26.346Z,95
2023-04-30T05:07:42.875Z,95
2023-04-30T05:08:12.518Z,95
2023-04-30T05:08:34.973Z,95
2023-04-30T05:09:00.424Z,95
2023-04-30T05:09:33.769Z,95
2023-04-30T05:10:07.866Z,95
2023-04-30T05:10:34.870Z,95
2023-04-30T05:10:53.517Z,95
2023-04-30T05:11:24.534Z,95
2023-04-30T05:11:41.772Z,95
2023-04-30T05:12:15.493Z,95
2023-04-30T05:12:34.832Z,95
2023-04-30T05:13:00.524Z,95
2023-04-30T05:13:33.541Z,95
2023-04-30T05:14:05.460Z,95
2023-04-30T05:14:35.366Z,95
2023-04-30T05:15:09.422Z,95
2023-04-30T05:15:35.243Z,95
2023-04-30T05:15:56.635Z,95
2023-04-30T05:16:28.373Z,95
2023-04-30T05:17:00.652Z,95
2023-04-30T05:17:33.949Z,95
2023-04-30T05:18:05.402Z,95
2023-04-30T05:18:34.888Z,95
2023-04-30T05:18:52.422Z,95
2023-04-30T05:19:25.358Z,95
2023-04-30T05:19:42.460Z,95
2023-04-30T05:20:13.667Z,95
2023-04-30T05:20:35.613Z,95
2023-04-30T05:21:01.640Z,95
2023-04-30T05:21:33.100Z,95
2023-04-30T05:22:04.964Z,95
2023-04-30T05:22:34.921Z,95
2023-04-30T05:22:52.481Z,95
2023-04-30T05:23:26.194Z,95
2023-04-30T05:23:43.366Z,95
2023-04-30T05:24:12.501Z,95
2023-04-30T05:24:34.987Z,95
2023-04-30T05:25:01.599Z,95
2023-04-30T05:25:32.926Z,95
2023-04-30T05:26:04.563Z,95
2023-04-30T05:26:34.930Z,95
2023-04-30T05:26:52.459Z,95
2023-04-30T05:27:25.422Z,95
2023-04-30T05:27:42.424Z,95
2023-04-30T05:28:12.358Z,95
2023-04-30T05:28:34.899Z,95
2023-04-30T05:29:01.605Z,95
2023-04-30T05:29:33.153Z,95
2023-04-30T05:30:05.384Z,95
2023-04-30T05:30:34.785Z,95
2023-04-30T05:30:52.635Z,95
2023-04-30T05:31:25.649Z,95
2023-04-30T05:31:44.631Z,95
2023-04-30T05:32:12.545Z,95
2023-04-30T05:32:34.886Z,95
2023-04-30T05:33:01.725Z,95
2023-04-30T05:33:33.707Z,95
2023-04-30T05:34:06.386Z,95
2023-04-30T05:34:34.843Z,95
2023-04-30T05:34:53.552Z,95
2023-04-30T05:35:24.702Z,95
2023-04-30T05:35:41.580Z,95
2023-04-30T05:36:13.599Z,95
2023-04-30T05:36:34.883Z,95
2023-04-30T05:37:00.393Z,95
2023-04-30T05:37:34.018Z,95
2023-04-30T05:38:04.542Z,95
2023-04-30T05:38:34.964Z,95
2023-04-30T05:38:52.502Z,95
2023-04-30T05:39:24.527Z,95
2023-04-30T05:39:56.650Z,95
2023-04-30T05:40:28.527Z,95
2023-04-30T05:41:00.536Z,95
2023-04-30T05:41:32.694Z,95
2023-04-30T05:42:05.020Z,95
2023-04-30T05:42:34.841Z,95
2023-04-30T05:42:53.186Z,95
2023-04-30T05:43:24.570Z,95
2023-04-30T05:43:41.898Z,95
2023-04-30T05:44:12.587Z,95
2023-04-30T05:44:34.914Z,95
2023-04-30T05:45:01.897Z,95
2023-04-30T05:45:32.639Z,95
2023-04-30T05:46:05.320Z,95
2023-04-30T05:46:35.650Z,95
2023-04-30T05:46:52.422Z,95
2023-04-30T05:47:25.417Z,95
2023-04-30T05:47:42.472Z,95
2023-04-30T05:48:12.434Z,95
2023-04-30T05:48:35.123Z,95
2023-04-30T05:49:00.441Z,95
2023-04-30T05:49:36.022Z,95
2023-04-30T05:50:08.986Z,94
2023-04-30T05:50:35.588Z,94
2023-04-30T05:51:09.041Z,94
2023-04-30T05:51:35.352Z,94
2023-04-30T05:51:56.390Z,94
2023-04-30T05:52:28.418Z,94
2023-04-30T05:53:00.429Z,94
2023-04-30T05:53:33.094Z,94
2023-04-30T05:54:04.553Z,94
2023-04-30T05:54:34.818Z,94
2023-04-30T05:54:52.454Z,94
2023-04-30T05:55:25.564Z,94
2023-04-30T05:55:42.421Z,94
2023-04-30T05:56:12.379Z,94
2023-04-30T05:56:34.863Z,94
2023-04-30T05:57:00.425Z,94
2023-04-30T05:57:33.508Z,94
2023-04-30T05:58:04.467Z,94
2023-04-30T05:58:34.820Z,94
2023-04-30T05:58:53.738Z,94
2023-04-30T05:59:24.331Z,94
2023-04-30T05:59:41.535Z,94
2023-04-30T06:00:14.118Z,94
2023-04-30T06:00:34.853Z,94
2023-04-30T06:01:00.949Z,94
2023-04-30T06:01:32.536Z,94
2023-04-30T06:02:04.583Z,94
2023-04-30T06:02:34.975Z,94
2023-04-30T06:02:52.524Z,94
2023-04-30T06:03:25.570Z,93
2023-04-30T06:03:44.729Z,93
2023-04-30T06:04:12.509Z,93
2023-04-30T06:04:35.726Z,93
2023-04-30T06:05:00.691Z,93
2023-04-30T06:05:33.531Z,93
2023-04-30T06:06:05.015Z,93
2023-04-30T06:06:35.002Z,93
2023-04-30T06:06:53.243Z,93
2023-04-30T06:07:24.557Z,93
2023-04-30T06:07:42.339Z,93
2023-04-30T06:08:12.417Z,93
2023-04-30T06:08:34.982Z,93
2023-04-30T06:09:01.498Z,93
2023-04-30T06:09:33.265Z,93
2023-04-30T06:10:07.005Z,93
2023-04-30T06:10:34.876Z,93
2023-04-30T06:10:52.603Z,93
2023-04-30T06:11:24.644Z,93
2023-04-30T06:11:42.480Z,93
2023-04-30T06:12:13.438Z,92
2023-04-30T06:12:35.332Z,92
2023-04-30T06:13:00.606Z,92
2023-04-30T06:13:32.971Z,92
2023-04-30T06:14:04.491Z,92
2023-04-30T06:14:35.406Z,92
2023-04-30T06:15:08.721Z,92
2023-04-30T06:15:34.851Z,92
2023-04-30T06:15:56.675Z,92
2023-04-30T06:16:29.217Z,92
2023-04-30T06:17:00.684Z,92
2023-04-30T06:17:33.929Z,92
2023-04-30T06:18:04.562Z,91
2023-04-30T06:18:35.274Z,91
2023-04-30T06:18:54.125Z,91
2023-04-30T06:19:24.916Z,91
2023-04-30T06:19:41.627Z,91
2023-04-30T06:20:12.648Z,91
2023-04-30T06:20:34.822Z,91
2023-04-30T06:21:01.513Z,90
2023-04-30T06:21:32.780Z,90
2023-04-30T06:22:04.925Z,90
2023-04-30T06:22:35.266Z,90
2023-04-30T06:22:52.407Z,90
2023-04-30T06:23:25.329Z,90
2023-04-30T06:23:42.468Z,90
2023-04-30T06:24:12.354Z,90
2023-04-30T06:24:34.795Z,90
2023-04-30T06:25:00.661Z,89
2023-04-30T06:25:33.534Z,89
2023-04-30T06:26:04.514Z,88
2023-04-30T06:26:38.337Z,88
2023-04-30T06:27:08.408Z,88
2023-04-30T06:27:35.289Z,87
2023-04-30T06:27:56.388Z,87
2023-04-30T06:28:28.354Z,87
2023-04-30T06:29:01.237Z,87
2023-04-30T06:29:32.663Z,86
2023-04-30T06:30:07.586Z,86
2023-04-30T06:30:34.863Z,86
2023-04-30T06:30:52.747Z,86
2023-04-30T06:31:25.335Z,86
2023-04-30T06:31:42.540Z,85
2023-04-30T06:32:12.474Z,85
2023-04-30T06:32:35.275Z,85
2023-04-30T06:33:00.795Z,85
2023-04-30T06:33:33.657Z,85
2023-04-30T06:34:06.003Z,85
2023-04-30T06:34:35.572Z,85
2023-04-30T06:34:53.266Z,85
2023-04-30T06:35:24.655Z,85
2023-04-30T06:35:41.632Z,85
2023-04-30T06:36:13.656Z,85
2023-04-30T06:36:34.792Z,85
2023-04-30T06:37:00.582Z,84
2023-04-30T06:37:33.459Z,84
2023-04-30T06:38:04.587Z,85
2023-04-30T06:38:35.413Z,85
2023-04-30T06:38:52.458Z,85
2023-04-30T06:39:25.332Z,85
2023-04-30T06:39:42.606Z,84
2023-04-30T06:40:12.623Z,84
2023-04-30T06:40:34.925Z,84
2023-04-30T06:41:01.553Z,84
2023-04-30T06:41:32.671Z,83
2023-04-30T06:42:04.552Z,83
2023-04-30T06:42:34.873Z,83